createdAt,value
2023-04-23T00:04:39.715Z,9.67
2023-04-23T00:09:44.966Z,8.70
2023-04-23T00:14:49.504Z,8.22
2023-04-23T00:19:54.806Z,9.21
2023-04-23T00:24:58.943Z,8.86
2023-04-23T00:30:03.313Z,8.33
2023-04-23T00:35:09.650Z,8.11
2023-04-23T00:40:13.769Z,8.93
2023-04-23T00:45:18.145Z,8.66
2023-04-23T00:50:24.139Z,8.26
2023-04-23T00:55:28.201Z,8.05
2023-04-23T01:00:32.105Z,7.79
2023-04-23T01:05:37.899Z,8.28
2023-04-23T01:10:42.077Z,8.70
2023-04-23T01:15:46.710Z,8.88
2023-04-23T01:20:52.667Z,8.42
2023-04-23T01:25:59.026Z,8.79
2023-04-23T01:31:04.139Z,8.29
2023-04-23T01:36:09.628Z,8.12
2023-04-23T01:41:15.504Z,7.81
2023-04-23T01:46:19.700Z,8.51
2023-04-23T01:51:25.811Z,8.38
2023-04-23T01:56:33.427Z,8.78
2023-04-23T02:01:45.328Z,7.99
2023-04-23T02:06:52.206Z,8.19
2023-04-23T02:11:57.785Z,8.43
2023-04-23T02:17:02.445Z,8.43
2023-04-23T02:22:07.521Z,8.23
2023-04-23T02:27:12.972Z,8.01
2023-04-23T02:32:17.155Z,7.27
2023-04-23T02:37:21.457Z,7.46
2023-04-23T02:42:26.878Z,7.41
2023-04-23T02:47:31.566Z,7.31
2023-04-23T02:52:35.841Z,8.09
2023-04-23T02:57:41.545Z,8.44
2023-04-23T03:02:45.866Z,7.62
2023-04-23T03:07:49.994Z,7.40
2023-04-23T03:12:56.551Z,7.18
2023-04-23T03:18:01.473Z,7.57
2023-04-23T03:23:06.516Z,7.89
2023-04-23T03:28:12.126Z,8.26
2023-04-23T03:33:16.079Z,8.22
2023-04-23T03:38:20.082Z,7.98
2023-04-23T03:43:26.137Z,8.41
2023-04-23T03:48:42.063Z,8.59
2023-04-23T03:53:52.649Z,8.47
2023-04-23T03:59:21.249Z,8.84
2023-04-23T04:04:27.281Z,9.70
2023-04-23T04:09:32.658Z,9.62
2023-04-23T04:14:40.188Z,9.98
2023-04-23T04:19:44.362Z,9.80
2023-04-23T04:24:48.609Z,10.93
2023-04-23T04:29:53.994Z,11.52
2023-04-23T04:34:58.502Z,11.25
2023-04-23T04:40:02.728Z,10.86
2023-04-23T04:45:10.233Z,11.60
2023-04-23T04:50:14.158Z,11.60
2023-04-23T04:55:18.266Z,11.30
2023-04-23T05:00:27.990Z,11.11
2023-04-23T05:05:33.566Z,10.49
2023-04-23T05:10:37.638Z,11.71
2023-04-23T05:15:43.040Z,12.35
2023-04-23T05:20:46.987Z,12.40
2023-04-23T05:25:54.168Z,13.14
2023-04-23T05:31:00.234Z,13.84
2023-04-23T05:36:04.327Z,13.15
2023-04-23T05:41:08.303Z,13.91
2023-04-23T05:46:13.629Z,14.12
2023-04-23T05:51:17.645Z,13.33
2023-04-23T05:56:22.249Z,14.35
2023-04-23T06:01:28.810Z,16.13
2023-04-23T06:06:33.108Z,16.35
2023-04-23T06:11:37.170Z,17.38
2023-04-23T06:16:42.517Z,17.17
2023-04-23T06:21:46.520Z,16.97
2023-04-23T06:26:50.560Z,16.30
2023-04-23T06:32:02.681Z,16.74
2023-04-23T06:37:06.721Z,16.46
2023-04-23T06:42:10.632Z,16.43
2023-04-23T06:47:27.981Z,17.20
2023-04-23T06:52:32.018Z,17.29
2023-04-23T06:57:36.104Z,17.93
2023-04-23T07:02:41.510Z,17.52
2023-04-23T07:07:46.647Z,18.13
2023-04-23T07:12:51.587Z,17.74
2023-04-23T07:17:56.963Z,18.14
2023-04-23T07:23:01.203Z,18.68
2023-04-23T07:28:05.309Z,18.58
2023-04-23T07:33:10.837Z,18.62
2023-04-23T07:38:14.741Z,18.46
2023-04-23T07:43:18.912Z,19.19
2023-04-23T07:48:24.302Z,18.30
2023-04-23T07:53:29.290Z,19.23
2023-04-23T07:58:33.902Z,19.38
2023-04-23T08:03:40.689Z,19.80
2023-04-23T08:08:44.789Z,18.04
2023-04-23T08:13:48.956Z,19.24
2023-04-23T08:19:04.955Z,19.35
2023-04-23T08:24:10.128Z,19.61
2023-04-23T08:29:14.105Z,19.74
2023-04-23T08:34:19.478Z,20.11
2023-04-23T08:39:23.851Z,20.41
2023-04-23T08:44:28.663Z,19.96
2023-04-23T08:49:35.768Z,20.08
2023-04-23T08:54:46.454Z,20.05
2023-04-23T08:59:50.468Z,20.67
2023-04-23T09:05:04.545Z,20.40
2023-04-23T09:10:11.422Z,20.31
2023-04-23T09:15:15.662Z,21.19
2023-04-23T09:20:21.955Z,21.13
2023-04-23T09:25:26.149Z,21.78
2023-04-23T09:30:31.504Z,21.30
2023-04-23T09:35:38.500Z,22.07
2023-04-23T09:40:44.253Z,20.72
2023-04-23T09:45:51.110Z,20.28
2023-04-23T09:50:57.599Z,21.61
2023-04-23T09:56:01.716Z,21.58
2023-04-23T10:01:08.886Z,21.16
2023-04-23T10:06:30.528Z,21.53
2023-04-23T10:11:35.508Z,20.85
2023-04-23T10:16:48.659Z,21.23
2023-04-23T10:22:02.263Z,22.52
2023-04-23T10:27:28.357Z,21.99
2023-04-23T10:32:40.693Z,21.94
2023-04-23T10:37:48.410Z,21.80
2023-04-23T10:42:52.953Z,22.90
2023-04-23T10:47:57.350Z,23.24
2023-04-23T10:53:03.707Z,22.80
2023-04-23T10:58:09.200Z,23.71
2023-04-23T11:03:32.770Z,23.78
2023-04-23T11:08:39.468Z,24.23
2023-04-23T11:13:53.938Z,23.11
2023-04-23T11:18:59.928Z,23.11
2023-04-23T11:24:08.582Z,24.25
2023-04-23T11:29:15.648Z,24.46
2023-04-23T11:34:20.105Z,26.32
2023-04-23T11:39:25.906Z,26.64
2023-04-23T11:44:30.226Z,24.41
2023-04-23T11:49:34.840Z,26.67
2023-04-23T11:54:41.995Z,26.51
2023-04-23T11:59:46.993Z,28.00
2023-04-23T12:04:50.925Z,26.15
2023-04-23T12:10:00.131Z,26.56
2023-04-23T12:15:08.542Z,25.98
2023-04-23T12:20:18.879Z,27.05
2023-04-23T12:25:25.047Z,26.80
2023-04-23T12:30:31.861Z,28.01
2023-04-23T12:35:40.491Z,27.41
2023-04-23T12:40:45.824Z,28.84
2023-04-23T12:45:49.905Z,28.82
2023-04-23T12:50:55.804Z,29.23
2023-04-23T12:56:01.387Z,27.57
2023-04-23T13:01:05.538Z,25.36
2023-04-23T13:06:09.642Z,25.87
2023-04-23T13:11:14.932Z,27.00
2023-04-23T13:16:19.263Z,26.48
2023-04-23T13:21:24.951Z,27.69
2023-04-23T13:26:32.113Z,26.86
2023-04-23T13:31:36.150Z,27.75
2023-04-23T13:36:41.760Z,27.04
2023-04-23T13:41:59.168Z,24.78
2023-04-23T13:47:10.645Z,25.63
2023-04-23T13:52:15.656Z,27.55
2023-04-23T13:57:21.020Z,27.66
2023-04-23T14:02:25.139Z,27.50
2023-04-23T14:07:29.490Z,28.33
2023-04-23T14:12:34.817Z,28.01
2023-04-23T14:17:40.765Z,28.78
2023-04-23T14:22:49.703Z,28.50
2023-04-23T14:27:57.228Z,28.92
2023-04-23T14:33:01.331Z,29.52
2023-04-23T14:38:05.538Z,29.01
2023-04-23T14:43:15.528Z,27.39
2023-04-23T14:48:20.201Z,27.76
2023-04-23T14:53:24.207Z,29.47
2023-04-23T14:58:33.652Z,28.91
2023-04-23T15:03:40.276Z,29.13
2023-04-23T15:08:44.139Z,29.65
2023-04-23T15:13:59.960Z,28.78
2023-04-23T15:19:06.394Z,29.26
2023-04-23T15:24:10.623Z,29.11
2023-04-23T15:29:16.189Z,27.80
2023-04-23T15:34:20.134Z,28.08
2023-04-23T15:39:24.235Z,27.88
2023-04-23T15:44:29.684Z,27.27
2023-04-23T15:49:33.695Z,26.60
2023-04-23T15:54:37.647Z,24.84
2023-04-23T15:59:43.260Z,23.72
2023-04-23T16:04:47.621Z,23.62
2023-04-23T16:09:51.587Z,23.14
2023-04-23T16:14:56.994Z,22.86
2023-04-23T16:20:01.152Z,24.01
2023-04-23T16:25:05.653Z,24.22
2023-04-23T16:30:11.993Z,23.05
2023-04-23T16:35:16.022Z,22.64
2023-04-23T16:40:21.578Z,22.53
2023-04-23T16:45:27.026Z,21.67
2023-04-23T16:50:30.911Z,21.25
2023-04-23T16:55:35.186Z,21.04
2023-04-23T17:00:40.718Z,20.62
2023-04-23T17:05:45.741Z,20.66
2023-04-23T17:10:49.756Z,20.37
2023-04-23T17:15:55.570Z,19.59
2023-04-23T17:20:59.522Z,20.04
2023-04-23T17:26:03.671Z,20.01
2023-04-23T17:31:09.247Z,19.75
2023-04-23T17:36:13.498Z,19.52
2023-04-23T17:41:19.242Z,19.09
2023-04-23T17:46:24.471Z,18.80
2023-04-23T17:51:28.561Z,19.08
2023-04-23T17:56:32.684Z,19.15
2023-04-23T18:01:38.619Z,18.87
2023-04-23T18:06:42.751Z,18.32
2023-04-23T18:11:46.699Z,17.57
2023-04-23T18:16:52.153Z,17.61
2023-04-23T18:21:56.843Z,17.61
2023-04-23T18:27:03.451Z,17.53
2023-04-23T18:32:08.814Z,17.25
2023-04-23T18:37:33.244Z,16.82
2023-04-23T18:42:37.420Z,16.74
2023-04-23T18:47:51.298Z,16.62
2023-04-23T18:52:55.851Z,17.02
2023-04-23T18:57:59.840Z,16.98
2023-04-23T19:03:15.165Z,17.39
2023-04-23T19:08:28.553Z,17.54
2023-04-23T19:13:32.714Z,16.73
2023-04-23T19:18:38.639Z,17.19
2023-04-23T19:23:42.529Z,17.34
2023-04-23T19:28:46.749Z,17.27
2023-04-23T19:33:52.113Z,17.05
2023-04-23T19:38:56.257Z,17.49
2023-04-23T19:44:00.352Z,17.15
2023-04-23T19:49:05.751Z,16.73
2023-04-23T19:54:09.795Z,16.81
2023-04-23T19:59:15.451Z,16.65
2023-04-23T20:04:20.794Z,16.59
2023-04-23T20:09:25.557Z,15.92
2023-04-23T20:14:30.046Z,16.25
2023-04-23T20:19:35.524Z,16.05
2023-04-23T20:24:40.438Z,16.15
2023-04-23T20:29:44.545Z,15.95
2023-04-23T20:34:49.945Z,16.31
2023-04-23T20:39:53.973Z,15.35
2023-04-23T20:44:58.355Z,15.31
2023-04-23T20:50:03.735Z,15.35
2023-04-23T20:55:08.541Z,15.21
2023-04-23T21:00:14.308Z,14.93
2023-04-23T21:05:19.486Z,14.47
2023-04-23T21:10:23.663Z,14.39
2023-04-23T21:15:29.711Z,15.05
2023-04-23T21:20:34.957Z,15.14
2023-04-23T21:25:39.955Z,14.89
2023-04-23T21:30:49.002Z,14.77
2023-04-23T21:35:54.846Z,14.33
2023-04-23T21:40:58.548Z,14.56
2023-04-23T21:46:02.688Z,14.38
2023-04-23T21:51:08.066Z,14.25
2023-04-23T21:56:11.921Z,13.37
2023-04-23T22:01:16.628Z,13.49
2023-04-23T22:06:23.292Z,14.11
2023-04-23T22:11:27.245Z,13.82
2023-04-23T22:16:31.597Z,14.04
2023-04-23T22:21:36.913Z,13.92
2023-04-23T22:26:40.978Z,13.09
2023-04-23T22:31:44.857Z,13.07
2023-04-23T22:36:50.314Z,12.64
2023-04-23T22:41:54.455Z,12.43
2023-04-23T22:46:58.403Z,12.55
2023-04-23T22:52:03.918Z,13.31
2023-04-23T22:57:09.991Z,13.09
2023-04-23T23:02:14.162Z,13.37
2023-04-23T23:07:20.094Z,13.55
2023-04-23T23:12:24.044Z,13.38
2023-04-23T23:17:27.941Z,13.61
2023-04-23T23:22:33.270Z,13.36
2023-04-23T23:27:37.214Z,13.54
2023-04-23T23:32:41.177Z,13.30
2023-04-23T23:37:46.648Z,13.32
2023-04-23T23:42:50.641Z,13.57
2023-04-23T23:47:54.712Z,13.02
2023-04-23T23:53:00.029Z,12.90
2023-04-23T23:58:03.922Z,13.12
